createdAt,value
2018-09-29T00:00:18.409Z,11.30
2018-09-29T00:02:46.752Z,11.30
2018-09-29T00:05:16.878Z,11.40
2018-09-29T00:07:45.178Z,11.40
2018-09-29T00:10:13.748Z,11.30
2018-09-29T00:12:42.519Z,11.30
2018-09-29T00:15:10.827Z,11.40
2018-09-29T00:17:39.119Z,11.40
2018-09-29T00:20:07.440Z,11.30
2018-09-29T00:22:36.013Z,11.40
2018-09-29T00:25:05.074Z,11.40
2018-09-29T00:27:33.598Z,11.30
2018-09-29T00:30:02.166Z,11.30
2018-09-29T00:32:30.439Z,11.20
2018-09-29T00:34:58.707Z,11.20
2018-09-29T00:37:26.996Z,11.20
2018-09-29T00:39:55.654Z,11.10
2018-09-29T00:42:23.932Z,11.10
2018-09-29T00:44:52.477Z,11.00
2018-09-29T00:47:20.765Z,11.10
2018-09-29T00:49:49.060Z,11.10
2018-09-29T00:52:17.371Z,11.10
2018-09-29T00:54:45.661Z,11.10
2018-09-29T00:57:14.363Z,11.10
2018-09-29T00:59:42.932Z,11.00
2018-09-29T01:02:11.731Z,11.00
2018-09-29T01:04:40.275Z,10.90
2018-09-29T01:07:08.691Z,10.90
2018-09-29T01:09:36.956Z,10.90
2018-09-29T01:12:05.831Z,10.90
2018-09-29T01:14:34.108Z,10.90
2018-09-29T01:17:03.224Z,10.80
2018-09-29T01:19:31.584Z,10.80
2018-09-29T01:22:00.469Z,10.80
2018-09-29T01:24:28.735Z,10.80
2018-09-29T01:26:57.231Z,10.70
2018-09-29T01:29:25.840Z,10.70
2018-09-29T01:31:54.161Z,10.70
2018-09-29T01:34:22.432Z,10.70
2018-09-29T01:36:51.114Z,10.60
2018-09-29T01:39:19.382Z,10.50
2018-09-29T01:41:47.945Z,10.50
2018-09-29T01:44:16.223Z,10.40
2018-09-29T01:46:44.603Z,10.40
2018-09-29T01:49:13.168Z,10.40
2018-09-29T01:51:41.460Z,10.40
2018-09-29T01:54:09.964Z,10.40
2018-09-29T01:56:38.812Z,10.50
2018-09-29T01:59:07.416Z,10.40
2018-09-29T02:01:35.967Z,10.30
2018-09-29T02:04:04.559Z,10.20
2018-09-29T02:06:33.179Z,10.30
2018-09-29T02:09:01.679Z,10.10
2018-09-29T02:11:29.981Z,10.10
2018-09-29T02:13:58.282Z,10.00
2018-09-29T02:16:26.836Z,9.90
2018-09-29T02:18:55.280Z,9.90
2018-09-29T02:21:23.899Z,10.00
2018-09-29T02:23:52.161Z,9.90
2018-09-29T02:26:20.754Z,9.90
2018-09-29T02:28:49.617Z,10.00
2018-09-29T02:31:18.018Z,9.90
2018-09-29T02:33:46.284Z,9.90
2018-09-29T02:36:14.868Z,9.80
2018-09-29T02:38:43.415Z,9.80
2018-09-29T02:41:11.887Z,9.80
2018-09-29T02:43:40.331Z,9.70
2018-09-29T02:46:09.319Z,9.80
2018-09-29T02:48:38.104Z,9.70
2018-09-29T02:51:06.672Z,9.70
2018-09-29T02:53:35.385Z,9.60
2018-09-29T02:56:04.121Z,9.50
2018-09-29T02:58:32.493Z,9.50
2018-09-29T03:01:00.879Z,9.30
2018-09-29T03:03:29.145Z,9.30
2018-09-29T03:05:57.584Z,9.20
2018-09-29T03:08:25.865Z,9.10
2018-09-29T03:10:54.136Z,9.00
2018-09-29T03:13:22.489Z,8.90
2018-09-29T03:15:50.780Z,8.90
2018-09-29T03:18:19.057Z,8.90
2018-09-29T03:20:48.094Z,8.90
2018-09-29T03:23:16.422Z,8.80
2018-09-29T03:25:45.113Z,8.70
2018-09-29T03:28:13.448Z,8.60
2018-09-29T03:30:41.859Z,8.50
2018-09-29T03:33:10.221Z,8.60
2018-09-29T03:35:38.579Z,8.50
2018-09-29T03:38:07.199Z,8.50
2018-09-29T03:40:35.725Z,8.40
2018-09-29T03:43:04.240Z,8.40
2018-09-29T03:45:32.674Z,8.40
2018-09-29T03:48:01.165Z,8.40
2018-09-29T03:50:29.657Z,8.30
2018-09-29T03:52:58.071Z,8.30
2018-09-29T03:55:26.345Z,8.20
2018-09-29T03:57:54.770Z,8.30
2018-09-29T04:00:23.300Z,8.20
2018-09-29T04:02:51.575Z,8.30
2018-09-29T04:05:19.858Z,8.30
2018-09-29T04:07:48.116Z,8.40
2018-09-29T04:10:16.474Z,8.50
2018-09-29T04:12:45.122Z,8.60
2018-09-29T04:15:13.655Z,8.70
2018-09-29T04:17:42.440Z,8.70
2018-09-29T04:20:10.823Z,8.80
2018-09-29T04:22:39.347Z,8.90
2018-09-29T04:25:07.796Z,8.90
2018-09-29T04:27:36.092Z,8.90
2018-09-29T04:30:04.616Z,9.00
2018-09-29T04:32:32.879Z,8.90
2018-09-29T04:35:01.215Z,9.00
2018-09-29T04:37:29.493Z,8.90
2018-09-29T04:39:57.856Z,8.90
2018-09-29T04:42:26.116Z,9.00
2018-09-29T04:44:54.387Z,9.00
2018-09-29T04:47:22.700Z,9.00
2018-09-29T04:49:51.594Z,9.00
2018-09-29T04:52:19.855Z,9.10
2018-09-29T04:54:48.163Z,9.00
2018-09-29T04:57:16.443Z,9.00
2018-09-29T04:59:44.712Z,9.00
2018-09-29T05:02:13.269Z,9.00
2018-09-29T05:04:41.839Z,9.00
2018-09-29T05:07:10.136Z,9.00
2018-09-29T05:09:38.576Z,9.00
2018-09-29T05:12:07.209Z,9.10
2018-09-29T05:14:35.818Z,9.10
2018-09-29T05:17:04.254Z,9.10
2018-09-29T05:19:32.615Z,9.10
2018-09-29T05:22:00.948Z,9.00
2018-09-29T05:24:29.214Z,9.10
2018-09-29T05:26:57.512Z,9.10
2018-09-29T05:29:26.031Z,9.10
2018-09-29T05:31:54.335Z,9.10
2018-09-29T05:34:22.627Z,9.10
2018-09-29T05:36:50.983Z,9.10
2018-09-29T05:39:19.512Z,9.10
2018-09-29T05:41:48.071Z,9.10
2018-09-29T05:44:16.360Z,9.10
2018-09-29T05:46:44.705Z,9.10
2018-09-29T05:49:13.245Z,9.10
2018-09-29T05:51:41.743Z,9.20
2018-09-29T05:54:10.224Z,9.20
2018-09-29T05:56:38.719Z,9.20
2018-09-29T05:59:07.292Z,9.20
2018-09-29T06:01:35.824Z,9.30
2018-09-29T06:04:04.700Z,9.30
2018-09-29T06:06:33.481Z,9.30
2018-09-29T06:09:02.756Z,9.40
2018-09-29T06:11:31.128Z,9.40
2018-09-29T06:13:59.642Z,9.50
2018-09-29T06:16:28.503Z,9.50
2018-09-29T06:18:57.073Z,9.50
2018-09-29T06:21:25.679Z,9.60
2018-09-29T06:23:53.975Z,9.70
2018-09-29T06:26:22.259Z,9.70
2018-09-29T06:28:50.547Z,9.80
2018-09-29T06:31:19.260Z,9.80
2018-09-29T06:33:47.848Z,9.80
2018-09-29T06:36:16.388Z,9.80
2018-09-29T06:38:44.897Z,9.90
2018-09-29T06:41:13.178Z,10.00
2018-09-29T06:43:41.615Z,10.10
2018-09-29T06:46:10.223Z,10.10
2018-09-29T06:48:38.794Z,10.10
2018-09-29T06:51:07.212Z,10.10
2018-09-29T06:53:35.470Z,10.20
2018-09-29T06:56:04.543Z,10.20
2018-09-29T06:58:32.833Z,10.20
2018-09-29T07:01:01.193Z,10.20
2018-09-29T07:03:29.980Z,10.30
2018-09-29T07:05:58.500Z,10.30
2018-09-29T07:08:27.040Z,10.40
2018-09-29T07:10:55.598Z,10.50
2018-09-29T07:13:24.100Z,10.60
2018-09-29T07:15:52.626Z,10.70
2018-09-29T07:18:20.899Z,10.90
2018-09-29T07:20:49.275Z,11.10
2018-09-29T07:23:17.734Z,11.20
2018-09-29T07:25:46.097Z,11.30
2018-09-29T07:28:14.660Z,11.30
2018-09-29T07:30:42.944Z,11.30
2018-09-29T07:33:11.530Z,11.20
2018-09-29T07:35:39.809Z,11.20
2018-09-29T07:38:08.339Z,11.20
2018-09-29T07:40:36.631Z,11.20
2018-09-29T07:43:05.156Z,11.20
2018-09-29T07:45:34.644Z,11.30
2018-09-29T07:48:02.929Z,11.50
2018-09-29T07:50:31.352Z,11.60
2018-09-29T07:52:59.620Z,11.80
2018-09-29T07:55:28.521Z,12.00
2018-09-29T07:57:56.874Z,12.10
2018-09-29T08:00:25.231Z,12.20
2018-09-29T08:02:53.890Z,12.20
2018-09-29T08:05:22.337Z,12.40
2018-09-29T08:07:50.618Z,12.50
2018-09-29T08:10:19.236Z,12.60
2018-09-29T08:12:47.527Z,12.60
2018-09-29T08:15:15.810Z,12.90
2018-09-29T08:17:44.208Z,13.00
2018-09-29T08:20:12.501Z,13.00
2018-09-29T08:22:40.755Z,13.10
2018-09-29T08:25:09.079Z,13.30
2018-09-29T08:27:37.449Z,13.70
2018-09-29T08:30:06.268Z,14.20
2018-09-29T08:32:34.564Z,14.70
2018-09-29T08:35:03.000Z,14.90
2018-09-29T08:37:31.320Z,14.90
2018-09-29T08:39:59.939Z,15.90
2018-09-29T08:42:28.206Z,17.00
2018-09-29T08:44:56.510Z,17.50
2018-09-29T08:47:24.965Z,17.80
2018-09-29T08:49:53.592Z,17.70
2018-09-29T08:52:21.870Z,17.60
2018-09-29T08:54:50.164Z,17.70
2018-09-29T08:57:18.632Z,17.80
2018-09-29T08:59:47.163Z,17.70
2018-09-29T09:02:16.034Z,18.00
2018-09-29T09:04:44.504Z,18.60
2018-09-29T09:07:12.779Z,19.10
2018-09-29T09:09:41.289Z,19.30
2018-09-29T09:12:09.584Z,20.20
2018-09-29T09:14:37.840Z,20.10
2018-09-29T09:17:06.433Z,20.00
2018-09-29T09:19:35.155Z,20.30
2018-09-29T09:22:03.459Z,20.50
2018-09-29T09:24:32.034Z,20.90
2018-09-29T09:27:00.627Z,20.80
2018-09-29T09:29:28.898Z,20.90
2018-09-29T09:31:57.424Z,21.00
2018-09-29T09:34:26.039Z,21.50
2018-09-29T09:36:54.347Z,21.60
2018-09-29T09:39:22.791Z,21.80
2018-09-29T09:41:51.103Z,22.20
2018-09-29T09:44:19.751Z,22.60
2018-09-29T09:46:48.060Z,22.20
2018-09-29T09:49:16.575Z,22.20
2018-09-29T09:51:45.152Z,22.70
2018-09-29T09:54:13.449Z,23.10
2018-09-29T09:56:42.055Z,23.20
2018-09-29T09:59:10.356Z,23.60
2018-09-29T10:01:44.480Z,23.50
2018-09-29T10:04:13.011Z,23.40
2018-09-29T10:06:41.460Z,23.40
2018-09-29T10:09:11.419Z,23.50
2018-09-29T10:11:39.683Z,23.40
2018-09-29T10:14:08.135Z,22.70
2018-09-29T10:16:36.693Z,22.60
2018-09-29T10:19:05.876Z,22.10
2018-09-29T10:21:34.832Z,21.80
2018-09-29T10:24:03.271Z,21.30
2018-09-29T10:26:31.907Z,21.10
2018-09-29T10:29:00.555Z,21.30
2018-09-29T10:31:28.863Z,21.20
2018-09-29T10:33:57.272Z,21.00
2018-09-29T10:36:25.609Z,21.00
2018-09-29T10:38:54.240Z,20.80
2018-09-29T10:41:22.824Z,21.00
2018-09-29T10:43:51.356Z,21.00
2018-09-29T10:46:19.701Z,21.30
2018-09-29T10:48:47.986Z,21.50
2018-09-29T10:51:16.511Z,21.70
2018-09-29T10:53:45.091Z,21.60
2018-09-29T10:56:13.381Z,21.60
2018-09-29T10:58:41.654Z,21.10
2018-09-29T11:01:10.230Z,21.60
2018-09-29T11:03:38.497Z,21.90
2018-09-29T11:06:07.015Z,22.20
2018-09-29T11:08:35.515Z,22.70
2018-09-29T11:11:03.979Z,22.70
2018-09-29T11:13:32.476Z,23.00
2018-09-29T11:16:00.766Z,23.80
2018-09-29T11:18:29.141Z,24.10
2018-09-29T11:20:57.862Z,24.10
2018-09-29T11:23:26.333Z,24.10
2018-09-29T11:25:54.772Z,24.50
2018-09-29T11:28:23.608Z,24.60
2018-09-29T11:30:52.240Z,24.90
2018-09-29T11:33:20.510Z,25.00
2018-09-29T11:35:48.911Z,25.30
2018-09-29T11:38:17.315Z,25.50
2018-09-29T11:40:45.646Z,25.20
2018-09-29T11:43:14.137Z,25.50
2018-09-29T11:45:42.921Z,25.60
2018-09-29T11:48:11.449Z,25.70
2018-09-29T11:50:39.951Z,25.50
2018-09-29T11:53:08.232Z,26.00
2018-09-29T11:55:36.768Z,25.40
2018-09-29T11:58:05.640Z,25.30
2018-09-29T12:00:33.938Z,25.00
2018-09-29T12:03:02.219Z,24.90
2018-09-29T12:05:30.475Z,25.10
2018-09-29T12:07:59.019Z,25.10
2018-09-29T12:10:27.564Z,25.20
2018-09-29T12:12:55.837Z,25.70
2018-09-29T12:15:24.388Z,25.80
2018-09-29T12:17:52.650Z,25.80
2018-09-29T12:20:21.186Z,25.80
2018-09-29T12:22:49.635Z,25.40
2018-09-29T12:25:18.194Z,25.60
2018-09-29T12:27:46.800Z,25.70
2018-09-29T12:30:15.084Z,25.40
2018-09-29T12:32:43.385Z,24.70
2018-09-29T12:35:11.712Z,24.90
2018-09-29T12:37:40.009Z,24.80
2018-09-29T12:40:08.464Z,25.20
2018-09-29T12:42:36.780Z,24.90
2018-09-29T12:45:05.543Z,24.50
2018-09-29T12:47:34.145Z,23.70
2018-09-29T12:50:02.839Z,22.70
2018-09-29T12:52:31.626Z,21.90
2018-09-29T12:54:59.897Z,21.70
2018-09-29T12:57:28.281Z,22.50
2018-09-29T12:59:56.858Z,23.00
2018-09-29T13:02:25.133Z,23.30
2018-09-29T13:04:53.623Z,22.90
2018-09-29T13:07:21.925Z,22.10
2018-09-29T13:09:50.537Z,21.10
2018-09-29T13:12:18.800Z,20.00
2018-09-29T13:14:47.198Z,19.30
2018-09-29T13:17:15.777Z,19.00
2018-09-29T13:19:44.067Z,18.70
2018-09-29T13:22:12.420Z,18.70
2018-09-29T13:24:41.144Z,18.70
2018-09-29T13:27:09.528Z,18.50
2018-09-29T13:29:37.822Z,18.30
2018-09-29T13:32:06.273Z,18.20
2018-09-29T13:34:35.777Z,18.10
2018-09-29T13:37:04.426Z,18.00
2018-09-29T13:39:32.999Z,18.10
2018-09-29T13:42:01.596Z,18.00
2018-09-29T13:44:30.416Z,18.00
2018-09-29T13:46:58.980Z,17.90
2018-09-29T13:49:27.344Z,17.90
2018-09-29T13:51:55.619Z,17.70
2018-09-29T13:54:23.993Z,17.50
2018-09-29T13:56:52.615Z,17.80
2018-09-29T13:59:21.192Z,17.90
2018-09-29T14:01:49.633Z,18.00
2018-09-29T14:04:17.984Z,18.80
2018-09-29T14:06:46.264Z,19.80
2018-09-29T14:09:14.696Z,20.60
2018-09-29T14:11:42.961Z,21.00
2018-09-29T14:14:11.221Z,20.50
2018-09-29T14:16:39.479Z,20.70
2018-09-29T14:19:08.099Z,20.90
2018-09-29T14:21:36.483Z,20.70
2018-09-29T14:24:05.116Z,20.50
2018-09-29T14:26:33.380Z,20.80
2018-09-29T14:29:02.016Z,21.80
2018-09-29T14:31:30.600Z,22.20
2018-09-29T14:33:59.175Z,21.40
2018-09-29T14:36:27.943Z,20.30
2018-09-29T14:38:56.363Z,19.10
2018-09-29T14:41:24.860Z,18.40
2018-09-29T14:43:53.422Z,18.00
2018-09-29T14:46:21.921Z,18.60
2018-09-29T14:48:50.186Z,19.40
2018-09-29T14:51:18.490Z,20.30
2018-09-29T14:53:46.757Z,20.80
2018-09-29T14:56:15.425Z,20.50
2018-09-29T14:58:44.028Z,20.40
2018-09-29T15:01:12.614Z,20.30
2018-09-29T15:03:41.152Z,20.00
2018-09-29T15:06:09.431Z,19.40
2018-09-29T15:08:37.971Z,19.50
2018-09-29T15:11:07.071Z,19.10
2018-09-29T15:13:35.655Z,18.80
2018-09-29T15:16:04.180Z,18.40
2018-09-29T15:18:32.456Z,17.60
2018-09-29T15:21:00.812Z,17.10
2018-09-29T15:23:29.360Z,16.50
2018-09-29T15:25:57.959Z,16.20
2018-09-29T15:28:26.659Z,15.80
2018-09-29T15:30:55.095Z,15.50
2018-09-29T15:33:23.404Z,15.30
2018-09-29T15:35:51.968Z,15.20
2018-09-29T15:38:20.241Z,15.00
2018-09-29T15:40:49.022Z,14.90
2018-09-29T15:43:17.334Z,14.80
2018-09-29T15:45:45.599Z,14.80
2018-09-29T15:48:14.098Z,14.80
2018-09-29T15:50:42.511Z,14.70
2018-09-29T15:53:11.037Z,14.60
2018-09-29T15:55:39.362Z,14.50
2018-09-29T15:58:08.084Z,14.50
2018-09-29T16:00:36.631Z,14.40
2018-09-29T16:03:04.905Z,14.40
2018-09-29T16:05:33.253Z,14.30
2018-09-29T16:08:01.702Z,14.10
2018-09-29T16:10:30.310Z,14.10
2018-09-29T16:12:58.874Z,14.00
2018-09-29T16:15:27.156Z,13.90
2018-09-29T16:17:56.012Z,13.90
2018-09-29T16:20:24.299Z,13.80
2018-09-29T16:22:52.573Z,13.80
2018-09-29T16:25:21.111Z,13.60
2018-09-29T16:27:49.785Z,13.70
2018-09-29T16:30:18.067Z,13.70
2018-09-29T16:32:46.350Z,13.60
2018-09-29T16:35:15.008Z,13.40
2018-09-29T16:37:43.543Z,13.40
2018-09-29T16:40:11.944Z,13.30
2018-09-29T16:42:40.237Z,13.20
2018-09-29T16:45:08.882Z,13.00
2018-09-29T16:47:37.154Z,13.00
2018-09-29T16:50:06.078Z,12.80
2018-09-29T16:52:34.829Z,12.80
2018-09-29T16:55:03.208Z,12.70
2018-09-29T16:57:31.638Z,12.70
2018-09-29T17:00:00.278Z,12.60
2018-09-29T17:02:28.712Z,12.40
2018-09-29T17:04:57.016Z,12.40
2018-09-29T17:07:25.316Z,12.30
2018-09-29T17:09:53.813Z,12.30
2018-09-29T17:12:22.093Z,12.20
2018-09-29T17:14:50.552Z,12.10
2018-09-29T17:17:19.162Z,12.10
2018-09-29T17:19:47.451Z,12.00
2018-09-29T17:22:15.720Z,11.90
2018-09-29T17:24:43.985Z,11.80
2018-09-29T17:27:12.287Z,11.90
2018-09-29T17:29:40.624Z,11.90
2018-09-29T17:32:08.905Z,11.80
2018-09-29T17:34:37.201Z,11.70
2018-09-29T17:37:05.801Z,11.60
2018-09-29T17:39:34.088Z,11.50
2018-09-29T17:42:02.497Z,11.50
2018-09-29T17:44:30.784Z,11.40
2018-09-29T17:46:59.068Z,11.40
2018-09-29T17:49:27.609Z,11.30
2018-09-29T17:51:56.143Z,11.30
2018-09-29T17:54:24.758Z,11.30
2018-09-29T17:56:53.062Z,11.20
2018-09-29T17:59:21.483Z,11.20
2018-09-29T18:01:50.011Z,11.10
2018-09-29T18:04:18.403Z,11.10
2018-09-29T18:06:46.868Z,11.10
2018-09-29T18:09:15.193Z,11.10
2018-09-29T18:11:43.642Z,11.10
2018-09-29T18:14:12.217Z,11.00
2018-09-29T18:16:40.487Z,10.90
2018-09-29T18:19:08.759Z,10.80
2018-09-29T18:21:37.198Z,10.80
2018-09-29T18:24:06.090Z,10.80
2018-09-29T18:26:34.428Z,10.80
2018-09-29T18:29:03.040Z,10.70
2018-09-29T18:31:31.573Z,10.70
2018-09-29T18:34:00.008Z,10.60
2018-09-29T18:36:28.719Z,10.60
2018-09-29T18:38:56.995Z,10.50
2018-09-29T18:41:25.286Z,10.40
2018-09-29T18:43:53.627Z,10.40
2018-09-29T18:46:21.900Z,10.30
2018-09-29T18:48:50.519Z,10.30
2018-09-29T18:51:19.388Z,10.20
2018-09-29T18:53:47.681Z,10.10
2018-09-29T18:56:15.975Z,10.10
2018-09-29T18:58:44.408Z,10.10
2018-09-29T19:01:12.984Z,10.10
2018-09-29T19:03:41.576Z,10.10
2018-09-29T19:06:09.844Z,10.00
2018-09-29T19:08:38.321Z,9.80
2018-09-29T19:11:06.777Z,9.70
2018-09-29T19:13:35.213Z,9.60
2018-09-29T19:16:03.507Z,9.60
2018-09-29T19:18:32.003Z,9.60
2018-09-29T19:21:00.380Z,9.50
2018-09-29T19:23:28.886Z,9.50
2018-09-29T19:25:57.186Z,9.40
2018-09-29T19:28:25.670Z,9.40
2018-09-29T19:30:53.935Z,9.30
2018-09-29T19:33:22.698Z,9.30
2018-09-29T19:35:51.206Z,9.30
2018-09-29T19:38:19.476Z,9.20
2018-09-29T19:40:48.112Z,9.20
2018-09-29T19:43:16.478Z,9.10
2018-09-29T19:45:45.093Z,9.10
2018-09-29T19:48:13.784Z,9.10
2018-09-29T19:50:42.389Z,9.00
2018-09-29T19:53:10.701Z,9.00
2018-09-29T19:55:39.123Z,8.90
2018-09-29T19:58:07.654Z,8.90
2018-09-29T20:00:35.948Z,8.90
2018-09-29T20:03:04.428Z,8.90
2018-09-29T20:05:32.704Z,8.80
2018-09-29T20:08:00.983Z,8.70
2018-09-29T20:10:29.356Z,8.60
2018-09-29T20:12:58.623Z,8.60
2018-09-29T20:15:27.233Z,8.60
2018-09-29T20:17:55.531Z,8.60
2018-09-29T20:20:24.094Z,8.70
2018-09-29T20:22:52.360Z,8.70
2018-09-29T20:25:20.919Z,8.80
2018-09-29T20:27:49.437Z,8.80
2018-09-29T20:30:17.979Z,8.90
2018-09-29T20:32:46.269Z,8.80
2018-09-29T20:35:14.593Z,8.80
2018-09-29T20:37:43.147Z,8.60
2018-09-29T20:40:11.420Z,8.60
2018-09-29T20:42:39.872Z,8.60
2018-09-29T20:45:08.272Z,8.50
2018-09-29T20:47:36.639Z,8.60
2018-09-29T20:50:05.483Z,8.40
2018-09-29T20:52:34.036Z,8.40
2018-09-29T20:55:02.337Z,8.40
2018-09-29T20:57:30.636Z,8.20
2018-09-29T20:59:59.020Z,8.10
2018-09-29T21:02:27.602Z,8.10
2018-09-29T21:04:55.879Z,8.10
2018-09-29T21:07:24.175Z,8.00
2018-09-29T21:09:52.503Z,7.90
2018-09-29T21:12:20.983Z,7.90
2018-09-29T21:14:49.499Z,7.90
2018-09-29T21:17:18.040Z,7.90
2018-09-29T21:19:46.305Z,7.90
2018-09-29T21:22:14.572Z,8.00
2018-09-29T21:24:43.041Z,8.00
2018-09-29T21:27:11.377Z,8.10
2018-09-29T21:29:39.975Z,8.10
2018-09-29T21:32:08.351Z,8.20
2018-09-29T21:34:36.623Z,8.30
2018-09-29T21:37:05.153Z,8.30
2018-09-29T21:39:33.524Z,8.30
2018-09-29T21:42:02.101Z,8.30
2018-09-29T21:44:30.412Z,8.30
2018-09-29T21:46:59.080Z,8.20
2018-09-29T21:49:27.791Z,8.10
2018-09-29T21:51:56.343Z,8.00
2018-09-29T21:54:24.887Z,8.00
2018-09-29T21:56:53.333Z,8.00
2018-09-29T21:59:22.132Z,8.00
2018-09-29T22:01:50.403Z,7.90
2018-09-29T22:04:18.684Z,7.80
2018-09-29T22:06:47.137Z,7.80
2018-09-29T22:09:22.792Z,7.80
2018-09-29T22:11:52.326Z,7.80
2018-09-29T22:14:21.190Z,7.70
2018-09-29T22:16:49.747Z,7.60
2018-09-29T22:19:18.435Z,7.60
2018-09-29T22:21:46.720Z,7.60
2018-09-29T22:24:15.026Z,7.70
2018-09-29T22:26:43.364Z,7.70
2018-09-29T22:29:11.636Z,7.60
2018-09-29T22:31:39.970Z,7.50
2018-09-29T22:34:08.527Z,7.50
2018-09-29T22:36:37.032Z,7.50
2018-09-29T22:39:08.120Z,7.40
2018-09-29T22:41:36.840Z,7.30
2018-09-29T22:44:06.107Z,7.20
2018-09-29T22:46:34.663Z,7.20
2018-09-29T22:49:03.229Z,7.20
2018-09-29T22:51:31.607Z,7.20
2018-09-29T22:54:00.216Z,7.20
2018-09-29T22:56:29.014Z,7.10
2018-09-29T22:58:57.864Z,7.10
2018-09-29T23:01:26.429Z,7.10
2018-09-29T23:03:54.987Z,7.00
2018-09-29T23:06:23.796Z,7.00
2018-09-29T23:08:52.099Z,6.90
2018-09-29T23:11:20.380Z,6.90
2018-09-29T23:13:48.951Z,6.90
2018-09-29T23:16:17.558Z,6.90
2018-09-29T23:18:45.856Z,6.90
2018-09-29T23:21:14.231Z,6.90
2018-09-29T23:23:42.776Z,6.80
2018-09-29T23:26:11.170Z,6.70
2018-09-29T23:28:39.801Z,6.70
2018-09-29T23:31:08.352Z,6.70
2018-09-29T23:33:36.595Z,6.70
2018-09-29T23:36:05.502Z,6.70
2018-09-29T23:38:34.102Z,6.60
2018-09-29T23:41:02.614Z,6.50
2018-09-29T23:43:30.987Z,6.50
2018-09-29T23:45:59.551Z,6.50
2018-09-29T23:48:28.092Z,6.50
2018-09-29T23:50:56.672Z,6.60
2018-09-29T23:53:24.988Z,6.50
2018-09-29T23:55:53.290Z,6.40
2018-09-29T23:58:21.836Z,6.30
